Time;durP1;ratioP1;P1;durP2;ratioP2;P2;SDS_P1;SDS_P2;PMS_P1;PMS_P2;Temp;Humidity;BMP_temperature;BMP_pressure;BME280_temperature;BME280_humidity;BME280_pressure;Samples;Min_cycle;Max_cycle;Signal;HPM_P1;HPM_P2
2022/03/23 00:00:43;;;;;;;130.88;73.00;;;;;;;5.68;100.00;103169.84;4986639;28;20506;-76
2022/03/23 00:03:16;;;;;;;127.90;72.97;;;;;;;5.67;100.00;103168.06;4988157;28;20025;-75
2022/03/23 00:05:42;;;;;;;136.02;77.43;;;;;;;5.66;100.00;103170.72;4987370;28;20030;-75
2022/03/23 00:08:08;;;;;;;125.45;73.15;;;;;;;5.63;100.00;103165.41;5005304;28;20045;-75
2022/03/23 00:10:34;;;;;;;128.35;74.15;;;;;;;5.61;100.00;103172.38;5004491;28;20069;-75
2022/03/23 00:13:01;;;;;;;126.47;74.68;;;;;;;5.57;100.00;103166.22;5004698;28;20044;-75
2022/03/23 00:15:27;;;;;;;136.80;78.47;;;;;;;5.56;100.00;103170.56;5004722;28;20440;-75
2022/03/23 00:17:53;;;;;;;129.02;73.05;;;;;;;5.53;100.00;103175.81;5005659;28;20053;-76
2022/03/23 00:20:19;;;;;;;128.50;73.28;;;;;;;5.50;100.00;103173.13;5000168;28;20064;-76
2022/03/23 00:22:45;;;;;;;126.60;72.40;;;;;;;5.47;100.00;103170.47;4985802;28;20038;-76
2022/03/23 00:25:10;;;;;;;135.45;76.22;;;;;;;5.45;100.00;103172.16;4985841;28;20033;-76
2022/03/23 00:27:36;;;;;;;136.40;76.38;;;;;;;5.44;100.00;103175.66;4982147;28;20027;-76
2022/03/23 00:30:01;;;;;;;131.40;75.05;;;;;;;5.43;100.00;103173.91;4985117;28;20062;-76
2022/03/23 00:32:27;;;;;;;129.30;74.63;;;;;;;5.41;100.00;103170.38;4983237;28;20049;-76
2022/03/23 00:34:53;;;;;;;131.60;74.75;;;;;;;5.38;100.00;103165.97;4985407;28;20693;-75
2022/03/23 00:37:19;;;;;;;129.98;73.57;;;;;;;5.37;100.00;103179.06;4984350;28;21573;-75
2022/03/23 00:39:44;;;;;;;129.45;73.38;;;;;;;5.35;100.00;103175.53;4984285;28;20164;-75
2022/03/23 00:42:10;;;;;;;127.63;71.78;;;;;;;5.33;100.00;103179.91;4982737;28;20040;-75
2022/03/23 00:44:36;;;;;;;131.40;74.10;;;;;;;5.30;100.00;103173.72;5001107;28;20061;-76
2022/03/23 00:47:01;;;;;;;132.63;77.72;;;;;;;5.28;100.00;103175.44;4985292;28;20499;-76
2022/03/23 00:49:28;;;;;;;128.07;73.03;;;;;;;5.26;100.00;103176.28;4985912;28;20034;-76
2022/03/23 00:51:53;;;;;;;134.43;76.15;;;;;;;5.25;100.00;103177.16;4985180;28;20050;-76
2022/03/23 00:54:20;;;;;;;138.35;78.22;;;;;;;5.23;100.00;103171.88;4999749;28;20603;-76
2022/03/23 00:56:46;;;;;;;146.27;80.20;;;;;;;5.20;100.00;103166.59;4985363;28;20269;-76
2022/03/23 00:59:13;;;;;;;137.18;78.07;;;;;;;5.20;100.00;103169.22;4983363;28;20049;-76
2022/03/23 01:01:39;;;;;;;143.73;80.93;;;;;;;5.19;100.00;103166.56;4999010;28;20355;-76
2022/03/23 01:04:05;;;;;;;142.50;80.97;;;;;;;5.15;100.00;103168.25;4982676;28;20341;-76
2022/03/23 01:06:32;;;;;;;141.20;80.80;;;;;;;5.14;100.00;103167.38;4999137;28;20239;-76
2022/03/23 01:08:57;;;;;;;140.85;80.55;;;;;;;5.10;100.00;103165.56;4984211;28;20035;-76
2022/03/23 01:11:23;;;;;;;134.35;78.25;;;;;;;5.09;100.00;103162.91;4984842;28;20033;-76
2022/03/23 01:13:49;;;;;;;137.52;80.20;;;;;;;5.06;100.00;103169.00;4982469;28;20026;-76
2022/03/23 01:16:16;;;;;;;141.93;82.45;;;;;;;5.01;100.00;103163.69;4981683;28;20042;-76
2022/03/23 01:18:42;;;;;;;140.90;81.72;;;;;;;4.99;100.00;103159.25;4982664;28;20030;-76
2022/03/23 01:21:08;;;;;;;136.43;81.25;;;;;;;4.96;100.00;103157.47;4991926;28;20718;-76
2022/03/23 01:23:34;;;;;;;144.00;82.20;;;;;;;4.93;100.00;103160.06;4982366;28;20160;-76
2022/03/23 01:25:59;;;;;;;137.65;80.65;;;;;;;4.92;100.00;103163.56;4984071;28;20135;-76
2022/03/23 01:28:25;;;;;;;142.38;81.03;;;;;;;4.89;100.00;103161.75;4984548;28;20117;-76
2022/03/23 01:30:51;;;;;;;138.95;80.38;;;;;;;4.88;100.00;103161.72;4983146;28;20059;-76
2022/03/23 01:33:17;;;;;;;149.30;82.57;;;;;;;4.86;100.00;103161.69;4999370;28;20026;-76
2022/03/23 01:35:42;;;;;;;145.63;84.60;;;;;;;4.85;100.00;103154.69;4998949;28;20030;-76
2022/03/23 01:38:08;;;;;;;147.07;81.82;;;;;;;4.85;100.00;103159.94;4987432;28;20026;-76
2022/03/23 01:40:33;;;;;;;150.52;82.82;;;;;;;4.83;100.00;103163.38;4984475;28;20511;-76
2022/03/23 01:42:59;;;;;;;142.80;81.57;;;;;;;4.80;100.00;103155.47;4984652;28;20022;-76
2022/03/23 01:45:25;;;;;;;144.38;82.50;;;;;;;4.77;100.00;103158.94;4984027;28;21023;-76
2022/03/23 01:47:50;;;;;;;154.50;87.72;;;;;;;4.78;100.00;103162.47;4984960;28;20242;-76
2022/03/23 01:50:16;;;;;;;152.05;85.03;;;;;;;4.75;100.00;103156.28;4986208;28;20030;-76
2022/03/23 01:52:42;;;;;;;153.63;85.32;;;;;;;4.74;100.00;103159.75;4986745;28;20093;-76
2022/03/23 01:55:11;;;;;;;161.32;88.03;;;;;;;4.74;100.00;103157.13;4971195;28;20029;-76
2022/03/23 01:57:39;;;;;;;150.95;83.35;;;;;;;4.73;100.00;103155.38;4987418;28;20115;-76
2022/03/23 02:00:07;;;;;;;151.45;84.32;;;;;;;4.70;100.00;103157.97;5001776;28;21928;-76
2022/03/23 02:02:32;;;;;;;150.80;84.22;;;;;;;4.67;100.00;103152.66;4990054;28;20034;-76
2022/03/23 02:04:58;;;;;;;173.23;90.78;;;;;;;4.65;100.00;103151.75;5002443;28;20449;-76
2022/03/23 02:07:24;;;;;;;156.15;85.05;;;;;;;4.66;100.00;103157.88;4986748;28;20118;-76
2022/03/23 02:09:50;;;;;;;159.93;87.40;;;;;;;4.62;100.00;103152.59;4984106;28;20170;-76
2022/03/23 02:12:15;;;;;;;154.25;85.90;;;;;;;4.61;100.00;103142.06;4987102;28;20033;-76
2022/03/23 02:14:41;;;;;;;167.07;89.57;;;;;;;4.60;100.00;103148.16;5000358;28;20477;-76
2022/03/23 02:17:07;;;;;;;155.68;85.63;;;;;;;4.59;100.00;103144.66;5002339;28;20405;-76
2022/03/23 02:19:34;;;;;;;162.77;87.82;;;;;;;4.58;100.00;103145.50;4989034;28;20041;-76
2022/03/23 02:22:00;;;;;;;159.13;84.75;;;;;;;4.58;100.00;103147.25;5006603;28;20037;-76
2022/03/23 02:24:30;;;;;;;158.45;84.70;;;;;;;4.57;100.00;103135.88;4991876;28;20504;-76
2022/03/23 02:26:57;;;;;;;149.07;83.03;;;;;;;4.56;100.00;103138.47;5006827;28;20120;-76
2022/03/23 02:29:25;;;;;;;162.95;87.40;;;;;;;4.58;100.00;103139.41;5007128;28;20701;-76
2022/03/23 02:31:51;;;;;;;164.35;87.85;;;;;;;4.57;100.00;103135.88;5008304;28;20134;-76
2022/03/23 02:34:17;;;;;;;138.77;79.38;;;;;;;4.57;100.00;103140.25;4990079;28;20053;-76
2022/03/23 02:36:43;;;;;;;140.02;79.00;;;;;;;4.55;100.00;103139.31;5005672;28;20044;-76
2022/03/23 02:39:08;;;;;;;144.98;80.93;;;;;;;4.54;100.00;103137.56;4983732;28;20511;-77
2022/03/23 02:41:34;;;;;;;150.95;82.53;;;;;;;4.53;100.00;103141.03;5008154;28;20037;-76
2022/03/23 02:44:00;;;;;;;149.52;82.75;;;;;;;4.52;100.00;103137.53;5007903;28;20386;-76
2022/03/23 02:46:26;;;;;;;146.00;80.50;;;;;;;4.51;100.00;103137.53;5007297;28;20416;-76
2022/03/23 02:48:52;;;;;;;152.63;83.22;;;;;;;4.49;100.00;103143.59;5007788;28;20465;-76
2022/03/23 02:51:18;;;;;;;157.77;85.57;;;;;;;4.48;100.00;103144.47;5006831;28;20037;-77
2022/03/23 03:02:21;;;;;;;151.70;82.45;;;;;;;4.47;100.00;103136.59;5006454;28;20036;-76
2022/03/23 03:04:48;;;;;;;153.52;81.57;;;;;;;4.45;100.00;103139.19;4992190;28;20036;-76
2022/03/23 03:07:14;;;;;;;154.93;81.53;;;;;;;4.44;100.00;103140.03;5006125;28;20051;-77
2022/03/23 03:09:40;;;;;;;152.68;81.65;;;;;;;4.41;100.00;103134.72;5005709;28;20483;-76
2022/03/23 03:12:07;;;;;;;140.57;78.13;;;;;;;4.40;100.00;103129.47;5007827;28;20037;-76
2022/03/23 03:14:33;;;;;;;148.32;80.65;;;;;;;4.35;100.00;103140.75;5005372;28;20116;-76
2022/03/23 03:16:59;;;;;;;145.52;78.88;;;;;;;4.32;100.00;103145.94;5006093;28;20505;-77
2022/03/23 03:19:24;;;;;;;135.02;75.22;;;;;;;4.31;100.00;103143.31;4991788;28;20189;-76
2022/03/23 03:21:50;;;;;;;138.80;73.97;;;;;;;4.29;100.00;103145.91;5006900;28;20162;-76
2022/03/23 03:24:15;;;;;;;143.60;76.90;;;;;;;4.27;100.00;103141.47;5005626;28;20171;-76
2022/03/23 03:26:41;;;;;;;149.10;79.82;;;;;;;4.26;100.00;103127.50;5006394;28;20067;-76
2022/03/23 03:29:06;;;;;;;155.05;79.85;;;;;;;4.28;100.00;103138.88;4987856;28;20049;-76
2022/03/23 03:31:32;;;;;;;137.68;76.47;;;;;;;4.26;100.00;103139.72;4990159;28;20132;-76
2022/03/23 03:33:58;;;;;;;134.93;75.45;;;;;;;4.24;100.00;103139.69;5004017;28;20053;-77
2022/03/23 03:36:24;;;;;;;155.77;81.53;;;;;;;4.24;100.00;103144.91;5005721;28;20167;-76
2022/03/23 03:38:49;;;;;;;141.63;77.15;;;;;;;4.23;100.00;103139.66;4987904;28;20052;-76
2022/03/23 03:41:16;;;;;;;141.90;76.38;;;;;;;4.20;100.00;103138.75;5002528;28;20037;-77
2022/03/23 03:43:43;;;;;;;139.60;75.30;;;;;;;4.17;100.00;103138.69;4990122;28;20045;-76
2022/03/23 03:46:10;;;;;;;123.85;71.00;;;;;;;4.17;100.00;103135.19;5004731;28;20477;-76
2022/03/23 03:48:36;;;;;;;148.98;76.85;;;;;;;4.14;100.00;103137.75;5003819;28;20455;-76
2022/03/23 03:51:02;;;;;;;139.25;74.60;;;;;;;4.11;100.00;103135.97;5007074;28;21405;-76
2022/03/23 03:53:28;;;;;;;137.35;75.07;;;;;;;4.08;100.00;103133.25;4989988;28;20128;-76
2022/03/23 03:55:54;;;;;;;131.90;72.07;;;;;;;4.09;100.00;103140.31;5004193;28;20033;-76
2022/03/23 03:58:20;;;;;;;142.27;77.25;;;;;;;4.10;100.00;103143.78;5005226;28;20022;-76
2022/03/23 04:00:46;;;;;;;139.02;73.50;;;;;;;4.10;100.00;103144.69;4987682;28;20033;-76
2022/03/23 04:03:12;;;;;;;153.27;79.63;;;;;;;4.12;100.00;103148.22;4985079;28;20029;-77
2022/03/23 04:05:38;;;;;;;136.60;75.30;;;;;;;4.13;100.00;103144.72;5005704;28;20608;-76
2022/03/23 04:08:04;;;;;;;144.75;76.93;;;;;;;4.12;100.00;103148.22;5004658;28;20034;-76
2022/03/23 04:10:29;;;;;;;135.23;73.95;;;;;;;4.12;100.00;103149.94;4989450;28;20523;-75
2022/03/23 04:12:56;;;;;;;131.82;71.25;;;;;;;4.11;100.00;103148.16;5004093;28;20136;-76
2022/03/23 04:15:24;;;;;;;128.85;71.60;;;;;;;4.12;100.00;103144.69;4973123;28;20602;-76
2022/03/23 04:17:49;;;;;;;123.93;70.38;;;;;;;4.09;100.00;103148.16;4985191;28;20026;-76
2022/03/23 04:20:15;;;;;;;140.57;74.47;;;;;;;4.10;100.00;103154.28;4971814;28;20053;-76
2022/03/23 04:22:40;;;;;;;130.80;72.75;;;;;;;4.07;100.00;103144.63;5006042;28;20180;-76
2022/03/23 04:25:11;;;;;;;139.75;75.53;;;;;;;4.07;100.00;103149.84;4969311;28;20034;-76
2022/03/23 04:27:52;;;;;;;132.15;71.70;;;;;;;4.07;100.00;103152.47;5004721;28;20129;-76
2022/03/23 04:30:19;;;;;;;137.20;73.25;;;;;;;4.05;100.00;103148.94;4968629;28;20146;-76
2022/03/23 04:32:46;;;;;;;137.57;72.88;;;;;;;4.04;100.00;103150.69;4988008;28;20075;-76
2022/03/23 04:35:12;;;;;;;135.02;72.75;;;;;;;4.03;100.00;103153.28;5004236;28;20068;-77
2022/03/23 04:37:39;;;;;;;129.32;72.45;;;;;;;4.03;100.00;103143.66;4985138;28;20037;-76
2022/03/23 04:40:05;;;;;;;140.27;73.43;;;;;;;4.03;100.00;103148.91;4986624;28;20126;-76
2022/03/23 04:42:31;;;;;;;133.88;70.63;;;;;;;4.03;100.00;103145.44;4986583;28;20087;-76
2022/03/23 04:44:56;;;;;;;146.13;75.72;;;;;;;4.01;100.00;103149.72;4986508;28;20428;-76
2022/03/23 04:47:22;;;;;;;134.90;72.75;;;;;;;3.98;100.00;103141.81;4986217;28;20026;-76
2022/03/23 04:49:48;;;;;;;133.30;73.50;;;;;;;3.93;100.00;103140.00;5005496;28;20044;-77
2022/03/23 04:52:16;;;;;;;139.73;73.53;;;;;;;3.92;100.00;103148.72;4986392;28;20025;-77
2022/03/23 04:54:43;;;;;;;132.30;71.45;;;;;;;3.93;100.00;103155.72;5003173;28;20033;-76
2022/03/23 04:57:09;;;;;;;141.35;73.68;;;;;;;3.90;100.00;103147.81;5001873;28;20635;-77
2022/03/23 04:59:34;;;;;;;138.50;73.97;;;;;;;3.90;100.00;103147.81;5002895;28;20053;-76
2022/03/23 05:02:00;;;;;;;134.23;72.53;;;;;;;3.89;100.00;103148.66;4987137;28;20036;-76
2022/03/23 05:04:25;;;;;;;138.85;74.97;;;;;;;3.87;100.00;103150.34;5005541;28;20095;-76
2022/03/23 05:06:50;;;;;;;145.95;77.82;;;;;;;3.89;100.00;103155.63;5004263;28;20033;-76
2022/03/23 05:09:16;;;;;;;151.45;78.75;;;;;;;3.89;100.00;103155.63;5004535;28;20675;-76
2022/03/23 05:11:41;;;;;;;139.27;76.47;;;;;;;3.91;100.00;103159.16;5005480;28;20053;-76
2022/03/23 05:14:07;;;;;;;145.40;78.68;;;;;;;3.90;100.00;103155.66;5005211;28;20042;-76
2022/03/23 05:16:33;;;;;;;130.65;71.13;;;;;;;3.89;100.00;103153.00;5004807;28;20228;-76
2022/03/23 05:18:59;;;;;;;140.18;74.13;;;;;;;3.87;100.00;103155.59;4985172;28;20516;-76
2022/03/23 05:21:24;;;;;;;157.05;81.18;;;;;;;3.88;100.00;103161.72;5000294;28;20058;-76
2022/03/23 05:23:49;;;;;;;142.80;76.93;;;;;;;3.92;100.00;103163.56;4986441;28;20353;-76
2022/03/23 05:26:15;;;;;;;160.75;82.53;;;;;;;3.94;100.00;103160.09;4988935;28;20033;-76
2022/03/23 05:28:41;;;;;;;171.63;84.43;;;;;;;3.97;100.00;103161.03;4988511;28;20025;-76
2022/03/23 05:31:07;;;;;;;161.73;84.05;;;;;;;4.01;100.00;103168.09;4983547;28;20084;-76
2022/03/23 05:33:32;;;;;;;172.68;85.07;;;;;;;4.02;100.00;103161.97;4989520;28;20084;-76
2022/03/23 05:35:58;;;;;;;156.98;83.57;;;;;;;3.98;100.00;103158.41;4989520;28;20745;-76
2022/03/23 05:38:23;;;;;;;152.75;78.28;;;;;;;3.97;100.00;103161.03;4988342;28;20072;-76
2022/03/23 05:40:49;;;;;;;160.48;82.57;;;;;;;3.91;100.00;103156.53;5003947;28;20041;-76
2022/03/23 05:43:14;;;;;;;157.30;79.40;;;;;;;3.87;100.00;103163.44;4987317;28;20037;-76
2022/03/23 05:45:40;;;;;;;149.18;79.45;;;;;;;3.85;100.00;103162.56;4987284;28;20033;-76
2022/03/23 05:48:05;;;;;;;149.05;79.35;;;;;;;3.83;100.00;103160.75;5003623;28;20038;-76
2022/03/23 05:50:33;;;;;;;148.55;79.32;;;;;;;3.83;100.00;103164.25;4986860;28;20392;-76
2022/03/23 05:52:58;;;;;;;136.73;73.63;;;;;;;3.82;100.00;103172.09;4986829;28;20125;-76
2022/03/23 05:55:24;;;;;;;148.50;75.47;;;;;;;3.81;100.00;103163.31;4989195;28;20044;-76
2022/03/23 05:57:50;;;;;;;125.80;68.60;;;;;;;3.81;100.00;103168.56;4974054;28;20492;-76
2022/03/23 06:00:15;;;;;;;131.27;71.50;;;;;;;3.81;100.00;103168.56;4989259;28;20431;-76
2022/03/23 06:02:41;;;;;;;147.55;77.90;;;;;;;3.82;100.00;103172.97;4989858;28;20061;-76
2022/03/23 06:05:07;;;;;;;135.98;72.82;;;;;;;3.83;100.00;103173.84;4988054;28;20156;-76
2022/03/23 06:07:34;;;;;;;141.70;75.45;;;;;;;3.83;100.00;103180.00;4968110;28;20034;-76
2022/03/23 06:10:00;;;;;;;145.02;76.65;;;;;;;3.87;100.00;103176.56;4960639;28;20026;-76
2022/03/23 06:12:26;;;;;;;151.13;80.53;;;;;;;3.90;100.00;103179.25;4970388;28;20034;-76
2022/03/23 06:14:51;;;;;;;141.85;78.78;;;;;;;3.96;100.00;103175.88;4986569;28;20096;-76
2022/03/23 06:17:17;;;;;;;136.65;76.93;;;;;;;4.00;100.00;103182.94;4987078;28;20056;-76
2022/03/23 06:19:42;;;;;;;151.32;78.00;;;;;;;4.02;100.00;103182.97;4988012;28;20121;-76
2022/03/23 06:22:08;;;;;;;140.57;76.72;;;;;;;4.06;100.00;103184.78;4986302;28;20056;-76
2022/03/23 06:24:34;;;;;;;144.60;77.90;;;;;;;4.06;100.00;103182.16;4986094;28;20037;-76
2022/03/23 06:27:00;;;;;;;150.40;77.28;;;;;;;4.10;100.00;103190.97;5003477;28;20406;-76
2022/03/23 06:29:26;;;;;;;147.60;77.05;;;;;;;4.11;100.00;103198.00;4986935;28;20035;-76
2022/03/23 06:31:52;;;;;;;146.73;80.22;;;;;;;4.15;100.00;103200.69;4974418;28;20044;-76
2022/03/23 06:34:17;;;;;;;144.32;79.15;;;;;;;4.20;100.00;103198.19;4986661;28;22294;-80
2022/03/23 06:36:43;;;;;;;149.60;80.03;;;;;;;4.27;100.00;103207.03;4989081;28;20099;-81
2022/03/23 06:39:08;;;;;;;149.35;82.65;;;;;;;4.32;100.00;103206.25;4988808;28;20045;-80
2022/03/23 06:41:34;;;;;;;147.20;80.68;;;;;;;4.38;100.00;103200.25;5004627;28;20152;-80
2022/03/23 06:43:59;;;;;;;138.95;78.22;;;;;;;4.44;100.00;103199.47;4988601;28;20468;-79
2022/03/23 06:46:25;;;;;;;135.13;76.15;;;;;;;4.51;100.00;103203.13;4987886;28;20591;-78
2022/03/23 06:48:50;;;;;;;143.40;81.28;;;;;;;4.56;100.00;103201.44;5003872;28;20476;-80
2022/03/23 06:51:16;;;;;;;144.00;80.13;;;;;;;4.60;100.00;103198.91;4985653;28;20414;-78
2022/03/23 06:53:42;;;;;;;151.00;81.60;;;;;;;4.69;100.00;103202.53;4986734;28;20030;-79
2022/03/23 06:56:08;;;;;;;144.98;80.07;;;;;;;4.74;100.00;103217.50;4984344;28;20038;-80
2022/03/23 06:58:34;;;;;;;154.57;83.63;;;;;;;4.81;100.00;103212.38;4979977;28;20397;-81
2022/03/23 07:01:00;;;;;;;162.20;85.53;;;;;;;4.87;100.00;103215.09;4987932;28;20073;-74
2022/03/23 07:03:26;;;;;;;152.75;83.88;;;;;;;4.96;100.00;103209.13;4987803;28;20050;-75
2022/03/23 07:05:52;;;;;;;148.50;85.05;;;;;;;5.05;100.00;103216.25;5005155;23;20156;-75
2022/03/23 07:11:24;;;;;;;157.95;87.00;;;;;;;5.19;100.00;103211.22;5000830;28;20040;-76
2022/03/23 07:13:50;;;;;;;154.85;86.88;;;;;;;5.29;100.00;103214.00;5025921;28;20112;-75
2022/03/23 07:16:16;;;;;;;150.98;86.88;;;;;;;5.39;100.00;103222.88;5013430;28;20536;-75
2022/03/23 07:18:42;;;;;;;143.25;83.20;;;;;;;5.46;100.00;103223.88;5027485;28;20028;-75
2022/03/23 07:21:07;;;;;;;149.05;83.43;;;;;;;5.52;100.00;103226.59;4994651;28;20109;-75
2022/03/23 07:23:34;;;;;;;139.07;80.15;;;;;;;5.60;100.00;103223.19;5027144;28;20485;-75
2022/03/23 07:26:01;;;;;;;137.93;78.47;;;;;;;5.67;100.00;103227.66;5008349;28;20098;-75
2022/03/23 07:28:26;;;;;;;136.70;78.50;;;;;;;5.75;100.00;103226.00;5025445;28;20036;-76
2022/03/23 07:30:52;;;;;;;134.95;77.93;;;;;;;5.83;100.00;103232.25;5025349;28;20037;-75
2022/03/23 07:33:17;;;;;;;133.15;78.05;;;;;;;5.94;100.00;103229.75;5008604;28;20086;-75
2022/03/23 07:35:43;;;;;;;130.07;76.75;;;;;;;6.05;100.00;103224.66;5007386;28;20057;-75
2022/03/23 07:38:08;;;;;;;124.85;74.72;;;;;;;6.16;100.00;103229.16;5026488;28;20365;-76
2022/03/23 07:40:36;;;;;;;127.68;74.32;;;;;;;6.26;100.00;103223.13;5026629;28;20025;-76
2022/03/23 07:43:01;;;;;;;118.90;71.78;;;;;;;6.37;100.00;103232.03;5014367;28;20903;-75
2022/03/23 07:45:27;;;;;;;116.15;71.78;;;;;;;6.45;100.00;103218.06;5024860;28;20032;-76
2022/03/23 07:47:53;;;;;;;113.18;68.05;;;;;;;6.56;100.00;103221.69;5007922;28;20029;-76
2022/03/23 07:50:18;;;;;;;115.95;70.88;;;;;;;6.63;100.00;103231.41;5026375;28;20421;-76
2022/03/23 07:52:44;;;;;;;113.68;68.63;;;;;;;6.70;100.00;103227.06;5007828;28;20033;-75
2022/03/23 07:55:10;;;;;;;111.72;68.78;;;;;;;6.78;100.00;103224.50;5024883;28;20460;-75
2022/03/23 07:57:35;;;;;;;101.05;64.90;;;;;;;6.85;100.00;103231.59;5024848;28;20487;-76
2022/03/23 08:00:01;;;;;;;99.90;63.72;;;;;;;6.93;100.00;103236.94;5012091;28;20115;-75
2022/03/23 08:02:26;;;;;;;101.85;63.22;;;;;;;7.02;100.00;103236.09;5024697;28;20022;-76
2022/03/23 08:04:53;;;;;;;103.07;64.15;;;;;;;7.10;100.00;103238.81;5024843;28;20029;-75
2022/03/23 08:07:19;;;;;;;103.75;62.08;;;;;;;7.18;100.00;103240.63;4992043;28;20046;-75
2022/03/23 08:09:45;;;;;;;101.25;61.85;;;;;;;7.28;100.00;103240.69;4989409;28;20135;-75
2022/03/23 08:12:11;;;;;;;99.72;61.40;;;;;;;7.38;100.00;103239.88;5004323;28;20037;-75
2022/03/23 08:14:36;;;;;;;99.70;63.28;;;;;;;7.46;100.00;103239.91;5006441;28;20033;-75
2022/03/23 08:17:02;;;;;;;97.22;59.90;;;;;;;7.57;100.00;103242.66;4992026;28;20069;-75
2022/03/23 08:19:27;;;;;;;98.07;61.17;;;;;;;7.65;100.00;103240.94;5007719;28;20511;-75
2022/03/23 08:21:53;;;;;;;95.45;58.90;;;;;;;7.75;100.00;103241.84;4989571;28;20041;-76
2022/03/23 08:24:19;;;;;;;89.03;59.03;;;;;;;7.87;100.00;103241.03;4988585;28;20477;-76
2022/03/23 08:26:45;;;;;;;88.03;55.05;;;;;;;7.96;100.00;103241.06;4987978;28;20040;-76
2022/03/23 08:29:10;;;;;;;83.90;55.17;;;;;;;8.08;100.00;103239.34;4988772;28;20550;-76
2022/03/23 08:31:36;;;;;;;84.15;54.08;;;;;;;8.19;100.00;103242.00;5006876;28;20037;-76
2022/03/23 08:34:04;;;;;;;95.45;53.55;;;;;;;8.28;100.00;103235.00;4989497;28;20091;-76
2022/03/23 08:36:30;;;;;;;82.55;52.13;;;;;;;8.37;100.00;103236.78;5006938;28;20048;-76
2022/03/23 08:38:55;;;;;;;84.10;52.53;;;;;;;8.46;100.00;103243.84;4989185;28;20171;-76
2022/03/23 08:41:22;;;;;;;78.38;51.60;;;;;;;8.55;100.00;103229.78;5005297;28;21761;-75
2022/03/23 08:43:48;;;;;;;79.95;51.63;;;;;;;8.65;100.00;103233.31;4988611;28;20038;-75
2022/03/23 08:46:13;;;;;;;75.43;47.75;;;;;;;8.75;100.00;103236.84;4988122;28;20040;-76
2022/03/23 08:48:40;;;;;;;74.05;46.35;;;;;;;8.85;100.00;103233.34;5007416;28;20032;-76
2022/03/23 08:51:05;;;;;;;73.80;47.00;;;;;;;8.97;100.00;103229.81;4991544;28;20026;-75
2022/03/23 08:53:31;;;;;;;70.65;47.03;;;;;;;9.15;100.00;103246.56;4988409;28;20103;-76
2022/03/23 08:55:57;;;;;;;72.32;47.83;;;;;;;9.25;100.00;103237.72;5007678;28;20080;-76
2022/03/23 08:58:23;;;;;;;73.38;44.83;;;;;;;9.36;100.00;103241.22;4989246;28;20030;-76
2022/03/23 09:00:49;;;;;;;69.13;44.22;;;;;;;9.49;100.00;103243.84;4993235;28;20045;-75
2022/03/23 09:03:14;;;;;;;66.68;44.00;;;;;;;9.61;100.00;103243.81;4989590;28;20115;-75
2022/03/23 09:05:40;;;;;;;67.93;42.30;;;;;;;9.70;100.00;103244.69;5010264;28;20079;-75
2022/03/23 09:08:08;;;;;;;66.28;41.60;;;;;;;9.81;100.00;103236.69;4993060;28;20092;-76
2022/03/23 09:10:34;;;;;;;63.70;41.70;;;;;;;9.91;100.00;103247.22;4980613;28;20475;-75
2022/03/23 09:13:00;;;;;;;62.78;44.13;;;;;;;10.01;100.00;103239.25;4976325;28;20034;-75
2022/03/23 09:15:26;;;;;;;63.83;43.20;;;;;;;10.12;100.00;103244.47;5007536;28;20040;-76
2022/03/23 09:17:52;;;;;;;64.22;42.13;;;;;;;10.19;100.00;103246.25;4996809;28;20038;-75
2022/03/23 09:20:17;;;;;;;65.78;41.97;;;;;;;10.28;100.00;103245.28;5009848;28;20080;-75
2022/03/23 09:22:44;;;;;;;60.15;39.08;;;;;;;10.36;100.00;103246.13;4990578;28;20657;-75
2022/03/23 09:25:12;;;;;;;61.25;41.00;;;;;;;10.45;100.00;103245.22;5008284;28;20546;-75
2022/03/23 09:27:43;;;;;;;58.05;40.35;;;;;;;10.52;99.91;103246.91;5008962;28;20068;-75
2022/03/23 09:30:11;;;;;;;60.25;40.22;;;;;;;10.62;99.38;103242.44;4991108;28;20029;-76
2022/03/23 09:32:38;;;;;;;65.30;40.28;;;;;;;10.70;99.10;103243.28;5009945;28;20030;-76
2022/03/23 09:35:05;;;;;;;64.03;39.90;;;;;;;10.79;98.95;103250.25;5007934;28;20103;-76
2022/03/23 09:37:49;;;;;;;64.32;39.65;;;;;;;10.88;98.19;103243.16;5008915;28;20464;-76
2022/03/23 09:40:28;;;;;;;60.22;39.38;;;;;;;10.93;97.69;103247.50;5008645;28;20041;-76
2022/03/23 09:42:58;;;;;;;59.25;37.85;;;;;;;10.98;97.23;103244.81;5009738;28;20104;-75
2022/03/23 09:47:59;;;;;;;51.55;34.45;;;;;;;11.12;95.82;103240.25;5008492;28;20041;-76
2022/03/23 09:50:30;;;;;;;49.40;33.85;;;;;;;11.24;94.93;103243.69;5008199;28;20053;-76
2022/03/23 09:52:56;;;;;;;50.25;34.08;;;;;;;11.30;94.00;103234.78;5007906;28;20638;-76
2022/03/23 09:55:21;;;;;;;50.92;34.03;;;;;;;11.37;93.04;103231.19;4992303;28;20112;-76
2022/03/23 09:57:47;;;;;;;51.78;33.55;;;;;;;11.45;92.35;103239.06;5007707;28;20033;-76
2022/03/23 10:00:13;;;;;;;46.95;32.63;;;;;;;11.49;91.64;103236.34;5008010;28;20523;-76
2022/03/23 10:02:39;;;;;;;44.97;32.22;;;;;;;11.57;90.45;103238.03;5007529;28;20649;-76
2022/03/23 10:05:52;;;;;;;46.15;31.98;;;;;;;11.67;88.80;103243.22;5007660;28;20420;-76
2022/03/23 10:08:37;;;;;;;46.50;32.33;;;;;;;11.75;88.26;103236.94;4939995;28;20047;-76
2022/03/23 10:11:40;;;;;;;48.30;32.83;;;;;;;11.84;87.84;103241.25;5006451;28;20048;-76
2022/03/23 10:14:30;;;;;;;51.15;33.95;;;;;;;11.88;87.80;103237.69;5006203;28;20068;-76
2022/03/23 10:17:30;;;;;;;47.05;31.85;;;;;;;11.93;86.35;103242.03;4988495;28;20037;-75
2022/03/23 10:19:56;;;;;;;50.05;33.47;;;;;;;12.02;86.87;103241.03;4994424;28;20527;-76
2022/03/23 10:22:26;;;;;;;51.22;32.05;;;;;;;12.09;85.34;103234.78;5008057;28;20034;-76
2022/03/23 10:24:51;;;;;;;46.08;31.00;;;;;;;12.18;84.60;103227.56;5004153;28;20100;-76
2022/03/23 10:27:17;;;;;;;51.97;32.08;;;;;;;12.22;84.39;103226.63;4990048;28;20694;-76
2022/03/23 10:29:46;;;;;;;49.20;32.20;;;;;;;12.25;84.04;103225.72;5006987;28;20026;-76
2022/03/23 10:32:13;;;;;;;43.30;30.27;;;;;;;12.31;83.29;103225.63;5004832;28;20022;-76
2022/03/23 10:34:41;;;;;;;42.03;29.88;;;;;;;12.36;82.48;103232.63;4960738;28;20428;-76
2022/03/23 10:37:07;;;;;;;44.45;29.20;;;;;;;12.44;81.06;103226.31;4992015;28;20391;-76
2022/03/23 10:39:32;;;;;;;46.38;29.33;;;;;;;12.48;80.60;103226.22;5006463;28;20030;-76
2022/03/23 10:42:05;;;;;;;45.63;29.15;;;;;;;12.53;80.08;103226.16;4979446;28;20561;-76
2022/03/23 10:44:31;;;;;;;;;;;;;;;12.58;75.70;103228.78;4970506;28;20033;-76
2022/03/23 10:46:58;;;;;;;42.72;27.55;;;;;;;12.63;77.85;103224.22;5006904;28;20584;-76
2022/03/23 10:49:35;;;;;;;42.78;26.48;;;;;;;12.67;76.21;103223.28;4973743;28;20091;-76
2022/03/23 10:52:32;;;;;;;41.00;26.13;;;;;;;12.70;74.50;103217.91;4973924;28;20520;-76
2022/03/23 10:55:01;;;;;;;37.45;24.35;;;;;;;12.81;75.06;103209.75;5006085;28;20041;-76
2022/03/23 10:57:55;;;;;;;38.88;23.70;;;;;;;12.95;72.79;103213.94;4989502;28;20526;-76
2022/03/23 11:00:30;;;;;;;39.30;25.00;;;;;;;13.07;72.16;103210.22;5005493;28;20513;-76
2022/03/23 11:02:57;;;;;;;35.75;23.08;;;;;;;13.11;71.37;103211.91;5007984;28;20049;-76
2022/03/23 11:05:33;;;;;;;32.53;22.35;;;;;;;13.19;69.88;103202.00;4989683;28;21561;-76
2022/03/23 11:08:21;;;;;;;36.40;22.80;;;;;;;13.22;66.71;103209.91;4989545;28;20493;-76
2022/03/23 11:16:24;;;;;;;31.88;21.38;;;;;;;13.37;67.03;103203.44;4991105;28;20538;-77
2022/03/23 11:18:58;;;;;;;31.38;21.02;;;;;;;13.39;66.57;103201.63;5004235;28;20291;-75
2022/03/23 11:21:24;;;;;;;33.25;22.33;;;;;;;13.40;66.70;103198.03;4989054;28;20686;-76
2022/03/23 11:23:50;;;;;;;34.75;21.85;;;;;;;13.43;65.64;103207.75;5005478;28;20038;-76